sensor_id;sensor_type;location;lat;lon;timestamp;temperature;humidity
59881;DHT22;45751;51.380;10.326;2023-09-07T00:01:00;19.20;78.80
59881;DHT22;45751;51.380;10.326;2023-09-07T00:03:30;19.10;79.00
59881;DHT22;45751;51.380;10.326;2023-09-07T00:05:57;19.10;79.40
59881;DHT22;45751;51.380;10.326;2023-09-07T00:08:24;19.10;79.50
59881;DHT22;45751;51.380;10.326;2023-09-07T00:10:52;19.00;79.80
59881;DHT22;45751;51.380;10.326;2023-09-07T00:13:19;19.00;80.20
59881;DHT22;45751;51.380;10.326;2023-09-07T00:15:46;18.90;80.20
59881;DHT22;45751;51.380;10.326;2023-09-07T00:18:13;18.90;80.20
59881;DHT22;45751;51.380;10.326;2023-09-07T00:20:39;18.90;80.10
59881;DHT22;45751;51.380;10.326;2023-09-07T00:23:07;18.90;79.90
59881;DHT22;45751;51.380;10.326;2023-09-07T00:25:34;18.90;79.90
59881;DHT22;45751;51.380;10.326;2023-09-07T00:28:04;18.90;79.90
59881;DHT22;45751;51.380;10.326;2023-09-07T00:30:31;18.90;80.10
59881;DHT22;45751;51.380;10.326;2023-09-07T00:32:58;18.90;80.30
59881;DHT22;45751;51.380;10.326;2023-09-07T00:35:25;18.80;80.60
59881;DHT22;45751;51.380;10.326;2023-09-07T00:37:52;18.80;80.70
59881;DHT22;45751;51.380;10.326;2023-09-07T00:40:19;18.80;80.80
59881;DHT22;45751;51.380;10.326;2023-09-07T00:42:46;18.70;80.70
59881;DHT22;45751;51.380;10.326;2023-09-07T00:45:13;18.80;80.80
59881;DHT22;45751;51.380;10.326;2023-09-07T00:47:40;18.70;80.80
59881;DHT22;45751;51.380;10.326;2023-09-07T00:50:08;18.70;81.40
59881;DHT22;45751;51.380;10.326;2023-09-07T00:52:36;18.70;81.50
59881;DHT22;45751;51.380;10.326;2023-09-07T00:55:07;18.60;81.60
59881;DHT22;45751;51.380;10.326;2023-09-07T00:57:36;18.60;81.70
59881;DHT22;45751;51.380;10.326;2023-09-07T01:00:06;18.60;82.10
59881;DHT22;45751;51.380;10.326;2023-09-07T01:02:34;18.50;82.40
59881;DHT22;45751;51.380;10.326;2023-09-07T01:05:02;18.50;82.20
59881;DHT22;45751;51.380;10.326;2023-09-07T01:07:42;18.50;82.60
59881;DHT22;45751;51.380;10.326;2023-09-07T01:10:10;18.50;82.50
59881;DHT22;45751;51.380;10.326;2023-09-07T01:12:37;18.50;82.90
59881;DHT22;45751;51.380;10.326;2023-09-07T01:15:04;18.40;83.30
59881;DHT22;45751;51.380;10.326;2023-09-07T01:17:33;18.40;83.80
59881;DHT22;45751;51.380;10.326;2023-09-07T01:20:07;18.30;83.80
59881;DHT22;45751;51.380;10.326;2023-09-07T01:22:37;18.30;83.80
59881;DHT22;45751;51.380;10.326;2023-09-07T01:25:06;18.30;84.20
59881;DHT22;45751;51.380;10.326;2023-09-07T01:27:34;18.20;84.80
59881;DHT22;45751;51.380;10.326;2023-09-07T01:30:02;18.20;85.00
59881;DHT22;45751;51.380;10.326;2023-09-07T01:32:30;18.10;84.80
59881;DHT22;45751;51.380;10.326;2023-09-07T01:34:58;18.10;85.00
59881;DHT22;45751;51.380;10.326;2023-09-07T01:37:26;18.10;85.00
59881;DHT22;45751;51.380;10.326;2023-09-07T01:39:53;18.10;85.50
59881;DHT22;45751;51.380;10.326;2023-09-07T01:42:20;18.00;86.00
59881;DHT22;45751;51.380;10.326;2023-09-07T01:44:48;18.00;86.40
59881;DHT22;45751;51.380;10.326;2023-09-07T01:47:16;17.90;86.60
59881;DHT22;45751;51.380;10.326;2023-09-07T01:49:43;17.90;86.70
59881;DHT22;45751;51.380;10.326;2023-09-07T01:52:10;17.80;86.50
59881;DHT22;45751;51.380;10.326;2023-09-07T01:54:37;17.80;86.90
59881;DHT22;45751;51.380;10.326;2023-09-07T01:57:04;17.70;87.10
59881;DHT22;45751;51.380;10.326;2023-09-07T01:59:31;17.60;87.50
59881;DHT22;45751;51.380;10.326;2023-09-07T02:01:57;17.60;87.60
59881;DHT22;45751;51.380;10.326;2023-09-07T02:04:24;17.60;87.70
59881;DHT22;45751;51.380;10.326;2023-09-07T02:06:51;17.50;88.00
59881;DHT22;45751;51.380;10.326;2023-09-07T02:09:18;17.50;88.90
59881;DHT22;45751;51.380;10.326;2023-09-07T02:11:45;17.40;88.30
59881;DHT22;45751;51.380;10.326;2023-09-07T02:14:12;17.40;88.70
59881;DHT22;45751;51.380;10.326;2023-09-07T02:16:39;17.40;88.90
59881;DHT22;45751;51.380;10.326;2023-09-07T02:19:06;17.30;88.90
59881;DHT22;45751;51.380;10.326;2023-09-07T02:21:33;17.30;89.40
59881;DHT22;45751;51.380;10.326;2023-09-07T02:24:00;17.20;89.60
59881;DHT22;45751;51.380;10.326;2023-09-07T02:26:27;17.20;89.60
59881;DHT22;45751;51.380;10.326;2023-09-07T02:28:54;17.20;89.60
59881;DHT22;45751;51.380;10.326;2023-09-07T02:31:22;17.10;90.00
59881;DHT22;45751;51.380;10.326;2023-09-07T02:33:50;17.10;90.20
59881;DHT22;45751;51.380;10.326;2023-09-07T02:36:17;17.10;90.40
59881;DHT22;45751;51.380;10.326;2023-09-07T02:38:44;17.00;90.40
59881;DHT22;45751;51.380;10.326;2023-09-07T02:41:12;17.00;90.50
59881;DHT22;45751;51.380;10.326;2023-09-07T02:43:39;17.00;90.40
59881;DHT22;45751;51.380;10.326;2023-09-07T02:46:05;17.00;90.60
59881;DHT22;45751;51.380;10.326;2023-09-07T02:48:32;16.90;90.60
59881;DHT22;45751;51.380;10.326;2023-09-07T02:51:01;16.90;90.70
59881;DHT22;45751;51.380;10.326;2023-09-07T02:53:29;16.80;90.70
59881;DHT22;45751;51.380;10.326;2023-09-07T02:55:56;16.80;90.90
59881;DHT22;45751;51.380;10.326;2023-09-07T02:58:23;16.80;91.10
59881;DHT22;45751;51.380;10.326;2023-09-07T03:00:52;16.70;91.10
59881;DHT22;45751;51.380;10.326;2023-09-07T03:03:21;16.70;91.30
59881;DHT22;45751;51.380;10.326;2023-09-07T03:05:48;16.60;91.30
59881;DHT22;45751;51.380;10.326;2023-09-07T03:08:15;16.60;91.40
59881;DHT22;45751;51.380;10.326;2023-09-07T03:10:42;16.60;91.50
59881;DHT22;45751;51.380;10.326;2023-09-07T03:13:13;16.50;91.60
59881;DHT22;45751;51.380;10.326;2023-09-07T03:15:40;16.50;91.70
59881;DHT22;45751;51.380;10.326;2023-09-07T03:18:11;16.50;91.70
59881;DHT22;45751;51.380;10.326;2023-09-07T03:20:40;16.40;91.60
59881;DHT22;45751;51.380;10.326;2023-09-07T03:23:06;16.40;91.80
59881;DHT22;45751;51.380;10.326;2023-09-07T03:25:35;16.40;91.90
59881;DHT22;45751;51.380;10.326;2023-09-07T03:28:02;16.40;91.90
59881;DHT22;45751;51.380;10.326;2023-09-07T03:30:32;16.30;92.60
59881;DHT22;45751;51.380;10.326;2023-09-07T03:32:59;16.20;92.20
59881;DHT22;45751;51.380;10.326;2023-09-07T03:35:26;16.20;92.40
59881;DHT22;45751;51.380;10.326;2023-09-07T03:37:53;16.20;92.70
59881;DHT22;45751;51.380;10.326;2023-09-07T03:40:20;16.20;92.60
59881;DHT22;45751;51.380;10.326;2023-09-07T03:42:47;16.20;92.60
59881;DHT22;45751;51.380;10.326;2023-09-07T03:45:14;16.20;92.70
59881;DHT22;45751;51.380;10.326;2023-09-07T03:47:42;16.20;92.80
59881;DHT22;45751;51.380;10.326;2023-09-07T03:50:11;16.10;93.00
59881;DHT22;45751;51.380;10.326;2023-09-07T03:52:38;16.10;93.00
59881;DHT22;45751;51.380;10.326;2023-09-07T03:55:07;16.10;93.10
59881;DHT22;45751;51.380;10.326;2023-09-07T03:57:35;16.00;93.30
59881;DHT22;45751;51.380;10.326;2023-09-07T04:00:03;16.00;93.20
59881;DHT22;45751;51.380;10.326;2023-09-07T04:02:45;16.00;93.20
59881;DHT22;45751;51.380;10.326;2023-09-07T04:05:13;16.00;93.20
59881;DHT22;45751;51.380;10.326;2023-09-07T04:07:40;16.00;93.30
59881;DHT22;45751;51.380;10.326;2023-09-07T04:10:08;15.90;93.40
59881;DHT22;45751;51.380;10.326;2023-09-07T04:12:36;15.90;93.50
59881;DHT22;45751;51.380;10.326;2023-09-07T04:15:03;15.80;93.50
59881;DHT22;45751;51.380;10.326;2023-09-07T04:17:30;15.80;93.50
59881;DHT22;45751;51.380;10.326;2023-09-07T04:20:02;15.80;93.60
59881;DHT22;45751;51.380;10.326;2023-09-07T04:22:30;15.70;93.50
59881;DHT22;45751;51.380;10.326;2023-09-07T04:24:57;15.70;93.50
59881;DHT22;45751;51.380;10.326;2023-09-07T04:27:24;15.70;93.60
59881;DHT22;45751;51.380;10.326;2023-09-07T04:29:51;15.70;93.70
59881;DHT22;45751;51.380;10.326;2023-09-07T04:32:18;15.70;93.80
59881;DHT22;45751;51.380;10.326;2023-09-07T04:34:52;15.60;93.90
59881;DHT22;45751;51.380;10.326;2023-09-07T04:37:19;15.60;94.00
59881;DHT22;45751;51.380;10.326;2023-09-07T04:39:49;15.60;94.00
59881;DHT22;45751;51.380;10.326;2023-09-07T04:42:16;15.50;94.00
59881;DHT22;45751;51.380;10.326;2023-09-07T04:44:43;15.50;94.20
59881;DHT22;45751;51.380;10.326;2023-09-07T04:47:11;15.50;94.30
59881;DHT22;45751;51.380;10.326;2023-09-07T04:49:38;15.50;94.50
59881;DHT22;45751;51.380;10.326;2023-09-07T04:52:05;15.50;94.80
59881;DHT22;45751;51.380;10.326;2023-09-07T04:54:32;15.50;94.90
59881;DHT22;45751;51.380;10.326;2023-09-07T04:56:59;15.50;95.10
59881;DHT22;45751;51.380;10.326;2023-09-07T04:59:26;15.50;95.00
59881;DHT22;45751;51.380;10.326;2023-09-07T05:01:52;15.50;95.20
59881;DHT22;45751;51.380;10.326;2023-09-07T05:04:19;15.50;95.20
59881;DHT22;45751;51.380;10.326;2023-09-07T05:06:46;15.50;95.30
59881;DHT22;45751;51.380;10.326;2023-09-07T05:09:13;15.50;95.30
59881;DHT22;45751;51.380;10.326;2023-09-07T05:11:40;15.50;95.50
59881;DHT22;45751;51.380;10.326;2023-09-07T05:14:07;15.50;95.70
59881;DHT22;45751;51.380;10.326;2023-09-07T05:16:37;15.50;95.70
59881;DHT22;45751;51.380;10.326;2023-09-07T05:19:04;15.50;95.80
59881;DHT22;45751;51.380;10.326;2023-09-07T05:21:31;15.60;96.00
59881;DHT22;45751;51.380;10.326;2023-09-07T05:23:58;15.60;96.20
59881;DHT22;45751;51.380;10.326;2023-09-07T05:26:28;15.60;96.30
59881;DHT22;45751;51.380;10.326;2023-09-07T05:28:57;15.60;96.30
59881;DHT22;45751;51.380;10.326;2023-09-07T05:31:24;15.70;96.30
59881;DHT22;45751;51.380;10.326;2023-09-07T05:33:51;15.70;96.40
59881;DHT22;45751;51.380;10.326;2023-09-07T05:36:18;15.70;96.40
59881;DHT22;45751;51.380;10.326;2023-09-07T05:38:46;15.70;96.50
59881;DHT22;45751;51.380;10.326;2023-09-07T05:41:13;15.70;96.40
59881;DHT22;45751;51.380;10.326;2023-09-07T05:43:40;15.70;96.40
59881;DHT22;45751;51.380;10.326;2023-09-07T05:46:06;15.70;96.50
59881;DHT22;45751;51.380;10.326;2023-09-07T05:48:34;15.80;96.90
59881;DHT22;45751;51.380;10.326;2023-09-07T05:51:01;15.70;96.50
59881;DHT22;45751;51.380;10.326;2023-09-07T05:53:28;15.80;96.60
59881;DHT22;45751;51.380;10.326;2023-09-07T05:55:55;15.90;96.70
59881;DHT22;45751;51.380;10.326;2023-09-07T05:58:22;15.90;96.70
59881;DHT22;45751;51.380;10.326;2023-09-07T06:00:49;15.90;96.70
59881;DHT22;45751;51.380;10.326;2023-09-07T06:03:17;16.00;96.80
59881;DHT22;45751;51.380;10.326;2023-09-07T06:05:44;16.00;96.70
59881;DHT22;45751;51.380;10.326;2023-09-07T06:08:11;16.00;96.70
59881;DHT22;45751;51.380;10.326;2023-09-07T06:10:38;16.10;96.90
59881;DHT22;45751;51.380;10.326;2023-09-07T06:13:07;16.20;97.00
59881;DHT22;45751;51.380;10.326;2023-09-07T06:15:34;16.20;96.90
59881;DHT22;45751;51.380;10.326;2023-09-07T06:18:02;16.20;96.90
59881;DHT22;45751;51.380;10.326;2023-09-07T06:20:30;16.30;96.80
59881;DHT22;45751;51.380;10.326;2023-09-07T06:23:00;16.20;96.80
59881;DHT22;45751;51.380;10.326;2023-09-07T06:25:27;16.40;96.80
59881;DHT22;45751;51.380;10.326;2023-09-07T06:27:56;16.40;96.70
59881;DHT22;45751;51.380;10.326;2023-09-07T06:30:23;16.50;96.60
59881;DHT22;45751;51.380;10.326;2023-09-07T06:32:50;16.50;96.50
59881;DHT22;45751;51.380;10.326;2023-09-07T06:35:18;16.60;96.60
59881;DHT22;45751;51.380;10.326;2023-09-07T06:37:46;16.60;96.60
59881;DHT22;45751;51.380;10.326;2023-09-07T06:40:16;16.70;96.60
59881;DHT22;45751;51.380;10.326;2023-09-07T06:42:49;16.70;96.40
59881;DHT22;45751;51.380;10.326;2023-09-07T06:45:19;16.80;96.40
59881;DHT22;45751;51.380;10.326;2023-09-07T06:47:49;16.80;96.40
59881;DHT22;45751;51.380;10.326;2023-09-07T06:50:20;16.80;96.30
59881;DHT22;45751;51.380;10.326;2023-09-07T06:52:47;16.90;96.80
59881;DHT22;45751;51.380;10.326;2023-09-07T06:55:14;17.00;96.30
59881;DHT22;45751;51.380;10.326;2023-09-07T06:57:43;16.90;96.30
59881;DHT22;45751;51.380;10.326;2023-09-07T07:00:11;17.00;96.30
59881;DHT22;45751;51.380;10.326;2023-09-07T07:02:39;17.00;96.30
59881;DHT22;45751;51.380;10.326;2023-09-07T07:05:07;17.00;96.20
59881;DHT22;45751;51.380;10.326;2023-09-07T07:07:35;17.10;96.30
59881;DHT22;45751;51.380;10.326;2023-09-07T07:10:02;17.10;96.30
59881;DHT22;45751;51.380;10.326;2023-09-07T07:12:30;17.20;96.30
59881;DHT22;45751;51.380;10.326;2023-09-07T07:15:02;17.20;96.30
59881;DHT22;45751;51.380;10.326;2023-09-07T07:17:29;17.30;96.30
59881;DHT22;45751;51.380;10.326;2023-09-07T07:19:57;17.30;96.20
59881;DHT22;45751;51.380;10.326;2023-09-07T07:22:24;17.30;96.20
59881;DHT22;45751;51.380;10.326;2023-09-07T07:24:51;17.30;96.20
59881;DHT22;45751;51.380;10.326;2023-09-07T07:27:20;17.40;96.20
59881;DHT22;45751;51.380;10.326;2023-09-07T07:29:48;17.40;96.20
59881;DHT22;45751;51.380;10.326;2023-09-07T07:32:15;17.50;96.20
59881;DHT22;45751;51.380;10.326;2023-09-07T07:34:42;17.50;96.20
59881;DHT22;45751;51.380;10.326;2023-09-07T07:37:10;17.60;96.10
59881;DHT22;45751;51.380;10.326;2023-09-07T07:39:37;17.60;96.10
59881;DHT22;45751;51.380;10.326;2023-09-07T07:42:04;17.70;96.20
59881;DHT22;45751;51.380;10.326;2023-09-07T07:44:33;17.70;96.30
59881;DHT22;45751;51.380;10.326;2023-09-07T07:47:00;17.80;96.40
59881;DHT22;45751;51.380;10.326;2023-09-07T07:49:28;17.80;96.40
59881;DHT22;45751;51.380;10.326;2023-09-07T07:51:55;17.90;96.40
59881;DHT22;45751;51.380;10.326;2023-09-07T07:54:24;17.90;96.30
59881;DHT22;45751;51.380;10.326;2023-09-07T07:56:53;17.90;96.30
59881;DHT22;45751;51.380;10.326;2023-09-07T07:59:20;18.00;96.10
59881;DHT22;45751;51.380;10.326;2023-09-07T08:01:47;18.10;96.10
59881;DHT22;45751;51.380;10.326;2023-09-07T08:04:14;18.10;95.90
59881;DHT22;45751;51.380;10.326;2023-09-07T08:06:42;18.10;95.80
59881;DHT22;45751;51.380;10.326;2023-09-07T08:09:09;18.20;95.70
59881;DHT22;45751;51.380;10.326;2023-09-07T08:11:40;18.20;95.80
59881;DHT22;45751;51.380;10.326;2023-09-07T08:14:07;18.30;95.70
59881;DHT22;45751;51.380;10.326;2023-09-07T08:16:34;18.40;95.40
59881;DHT22;45751;51.380;10.326;2023-09-07T08:19:02;18.40;95.10
59881;DHT22;45751;51.380;10.326;2023-09-07T08:21:31;18.50;94.70
59881;DHT22;45751;51.380;10.326;2023-09-07T08:23:57;18.50;94.60
59881;DHT22;45751;51.380;10.326;2023-09-07T08:26:24;18.60;94.20
59881;DHT22;45751;51.380;10.326;2023-09-07T08:28:54;18.70;93.90
59881;DHT22;45751;51.380;10.326;2023-09-07T08:31:21;18.80;93.70
59881;DHT22;45751;51.380;10.326;2023-09-07T08:33:49;18.80;93.10
59881;DHT22;45751;51.380;10.326;2023-09-07T08:36:18;18.90;92.80
59881;DHT22;45751;51.380;10.326;2023-09-07T08:38:50;18.90;92.60
59881;DHT22;45751;51.380;10.326;2023-09-07T08:41:17;19.00;92.30
59881;DHT22;45751;51.380;10.326;2023-09-07T08:43:45;19.00;92.40
59881;DHT22;45751;51.380;10.326;2023-09-07T08:46:15;19.10;92.50
59881;DHT22;45751;51.380;10.326;2023-09-07T08:48:43;19.10;92.50
59881;DHT22;45751;51.380;10.326;2023-09-07T08:51:11;19.20;92.00
59881;DHT22;45751;51.380;10.326;2023-09-07T08:53:39;19.30;91.20
59881;DHT22;45751;51.380;10.326;2023-09-07T08:56:07;19.30;90.50
59881;DHT22;45751;51.380;10.326;2023-09-07T08:58:37;19.40;90.00
59881;DHT22;45751;51.380;10.326;2023-09-07T09:01:04;19.60;89.50
59881;DHT22;45751;51.380;10.326;2023-09-07T09:03:35;19.60;88.40
59881;DHT22;45751;51.380;10.326;2023-09-07T09:06:07;19.70;87.50
59881;DHT22;45751;51.380;10.326;2023-09-07T09:08:45;19.80;86.30
59881;DHT22;45751;51.380;10.326;2023-09-07T09:11:13;19.80;85.10
59881;DHT22;45751;51.380;10.326;2023-09-07T09:13:40;19.90;85.00
59881;DHT22;45751;51.380;10.326;2023-09-07T09:16:09;19.90;84.70
59881;DHT22;45751;51.380;10.326;2023-09-07T09:18:36;20.00;83.70
59881;DHT22;45751;51.380;10.326;2023-09-07T09:21:04;20.00;82.70
59881;DHT22;45751;51.380;10.326;2023-09-07T09:23:36;20.10;81.80
59881;DHT22;45751;51.380;10.326;2023-09-07T09:26:04;20.20;82.40
59881;DHT22;45751;51.380;10.326;2023-09-07T09:28:33;20.20;82.90
59881;DHT22;45751;51.380;10.326;2023-09-07T09:31:02;20.20;81.00
59881;DHT22;45751;51.380;10.326;2023-09-07T09:33:32;20.30;80.30
59881;DHT22;45751;51.380;10.326;2023-09-07T09:36:00;20.30;79.90
59881;DHT22;45751;51.380;10.326;2023-09-07T09:38:27;20.40;79.70
59881;DHT22;45751;51.380;10.326;2023-09-07T09:40:54;20.40;79.80
59881;DHT22;45751;51.380;10.326;2023-09-07T09:43:22;20.50;79.10
59881;DHT22;45751;51.380;10.326;2023-09-07T09:45:49;20.50;78.00
59881;DHT22;45751;51.380;10.326;2023-09-07T09:48:20;20.60;78.00
59881;DHT22;45751;51.380;10.326;2023-09-07T09:50:49;20.60;76.30
59881;DHT22;45751;51.380;10.326;2023-09-07T09:53:17;20.60;76.40
59881;DHT22;45751;51.380;10.326;2023-09-07T09:55:47;20.70;75.70
59881;DHT22;45751;51.380;10.326;2023-09-07T09:58:16;20.80;76.30
59881;DHT22;45751;51.380;10.326;2023-09-07T10:00:49;20.80;76.90
59881;DHT22;45751;51.380;10.326;2023-09-07T10:05:52;20.80;75.60
59881;DHT22;45751;51.380;10.326;2023-09-07T10:08:20;21.00;75.20
59881;DHT22;45751;51.380;10.326;2023-09-07T10:10:53;20.90;74.80
59881;DHT22;45751;51.380;10.326;2023-09-07T10:13:30;21.00;73.90
59881;DHT22;45751;51.380;10.326;2023-09-07T10:16:01;21.00;73.30
59881;DHT22;45751;51.380;10.326;2023-09-07T10:18:35;21.10;73.40
59881;DHT22;45751;51.380;10.326;2023-09-07T10:21:03;21.10;73.90
59881;DHT22;45751;51.380;10.326;2023-09-07T10:23:41;21.20;74.40
59881;DHT22;45751;51.380;10.326;2023-09-07T10:26:12;21.20;74.50
59881;DHT22;45751;51.380;10.326;2023-09-07T10:28:40;21.30;73.30
59881;DHT22;45751;51.380;10.326;2023-09-07T10:31:14;21.30;73.90
59881;DHT22;45751;51.380;10.326;2023-09-07T10:33:41;21.30;74.00
59881;DHT22;45751;51.380;10.326;2023-09-07T10:36:26;21.40;74.20
59881;DHT22;45751;51.380;10.326;2023-09-07T10:38:55;21.40;73.20
59881;DHT22;45751;51.380;10.326;2023-09-07T10:41:23;21.50;71.20
59881;DHT22;45751;51.380;10.326;2023-09-07T10:43:51;21.60;69.70
59881;DHT22;45751;51.380;10.326;2023-09-07T10:46:22;21.70;68.90
59881;DHT22;45751;51.380;10.326;2023-09-07T10:48:51;21.70;68.40
59881;DHT22;45751;51.380;10.326;2023-09-07T10:51:21;21.80;68.90
59881;DHT22;45751;51.380;10.326;2023-09-07T10:53:49;21.80;68.00
59881;DHT22;45751;51.380;10.326;2023-09-07T10:56:16;21.90;68.40
59881;DHT22;45751;51.380;10.326;2023-09-07T10:58:43;22.00;68.60
59881;DHT22;45751;51.380;10.326;2023-09-07T11:01:10;22.00;68.70
59881;DHT22;45751;51.380;10.326;2023-09-07T11:03:37;22.10;66.70
59881;DHT22;45751;51.380;10.326;2023-09-07T11:06:12;22.20;65.20
59881;DHT22;45751;51.380;10.326;2023-09-07T11:08:40;22.30;63.20
59881;DHT22;45751;51.380;10.326;2023-09-07T11:11:08;22.30;63.20
59881;DHT22;45751;51.380;10.326;2023-09-07T11:13:36;22.40;63.30
59881;DHT22;45751;51.380;10.326;2023-09-07T11:16:08;22.40;62.90
59881;DHT22;45751;51.380;10.326;2023-09-07T11:18:36;22.50;63.50
59881;DHT22;45751;51.380;10.326;2023-09-07T11:21:03;22.60;64.10
59881;DHT22;45751;51.380;10.326;2023-09-07T11:23:31;22.70;62.90
59881;DHT22;45751;51.380;10.326;2023-09-07T11:26:05;22.70;62.00
59881;DHT22;45751;51.380;10.326;2023-09-07T11:28:33;22.80;62.00
59881;DHT22;45751;51.380;10.326;2023-09-07T11:31:02;22.90;62.00
59881;DHT22;45751;51.380;10.326;2023-09-07T11:33:33;23.00;61.70
59881;DHT22;45751;51.380;10.326;2023-09-07T11:36:00;23.10;61.40
59881;DHT22;45751;51.380;10.326;2023-09-07T11:38:30;23.20;61.40
59881;DHT22;45751;51.380;10.326;2023-09-07T11:41:01;23.30;59.70
59881;DHT22;45751;51.380;10.326;2023-09-07T11:43:28;23.30;58.60
59881;DHT22;45751;51.380;10.326;2023-09-07T11:45:56;23.40;57.60
59881;DHT22;45751;51.380;10.326;2023-09-07T11:48:24;23.50;57.90
59881;DHT22;45751;51.380;10.326;2023-09-07T11:50:51;23.70;57.20
59881;DHT22;45751;51.380;10.326;2023-09-07T11:53:18;23.70;58.10
59881;DHT22;45751;51.380;10.326;2023-09-07T11:55:45;23.80;58.20
59881;DHT22;45751;51.380;10.326;2023-09-07T11:58:12;23.90;58.60
59881;DHT22;45751;51.380;10.326;2023-09-07T12:00:39;24.00;59.00
59881;DHT22;45751;51.380;10.326;2023-09-07T12:03:08;24.10;60.00
59881;DHT22;45751;51.380;10.326;2023-09-07T12:05:35;24.20;59.50
59881;DHT22;45751;51.380;10.326;2023-09-07T12:08:04;24.30;59.10
59881;DHT22;45751;51.380;10.326;2023-09-07T12:10:32;24.40;57.70
59881;DHT22;45751;51.380;10.326;2023-09-07T12:13:00;24.50;58.10
59881;DHT22;45751;51.380;10.326;2023-09-07T12:15:27;24.60;56.50
59881;DHT22;45751;51.380;10.326;2023-09-07T12:17:54;24.80;56.20
59881;DHT22;45751;51.380;10.326;2023-09-07T12:20:22;24.80;55.90
59881;DHT22;45751;51.380;10.326;2023-09-07T12:22:50;25.00;55.80
59881;DHT22;45751;51.380;10.326;2023-09-07T12:25:17;25.10;52.70
59881;DHT22;45751;51.380;10.326;2023-09-07T12:27:45;25.10;51.70
59881;DHT22;45751;51.380;10.326;2023-09-07T12:30:18;25.20;51.70
59881;DHT22;45751;51.380;10.326;2023-09-07T12:32:47;25.40;51.00
59881;DHT22;45751;51.380;10.326;2023-09-07T12:35:14;25.40;50.30
59881;DHT22;45751;51.380;10.326;2023-09-07T12:37:42;25.50;50.40
59881;DHT22;45751;51.380;10.326;2023-09-07T12:40:09;25.60;49.80
59881;DHT22;45751;51.380;10.326;2023-09-07T12:42:40;25.80;49.80
59881;DHT22;45751;51.380;10.326;2023-09-07T12:45:12;25.90;49.70
59881;DHT22;45751;51.380;10.326;2023-09-07T12:47:39;26.00;47.70
59881;DHT22;45751;51.380;10.326;2023-09-07T12:50:07;26.10;46.70
59881;DHT22;45751;51.380;10.326;2023-09-07T12:52:35;26.20;46.40
59881;DHT22;45751;51.380;10.326;2023-09-07T12:55:05;26.30;45.70
59881;DHT22;45751;51.380;10.326;2023-09-07T12:57:33;26.40;44.90
59881;DHT22;45751;51.380;10.326;2023-09-07T13:00:00;26.50;43.80
59881;DHT22;45751;51.380;10.326;2023-09-07T13:02:27;26.60;44.30
59881;DHT22;45751;51.380;10.326;2023-09-07T13:04:55;26.80;44.00
59881;DHT22;45751;51.380;10.326;2023-09-07T13:07:24;26.80;44.20
59881;DHT22;45751;51.380;10.326;2023-09-07T13:09:51;27.00;44.30
59881;DHT22;45751;51.380;10.326;2023-09-07T13:12:18;27.00;44.30
59881;DHT22;45751;51.380;10.326;2023-09-07T13:14:45;27.10;42.50
59881;DHT22;45751;51.380;10.326;2023-09-07T13:17:13;27.30;41.80
59881;DHT22;45751;51.380;10.326;2023-09-07T13:19:43;27.40;41.30
59881;DHT22;45751;51.380;10.326;2023-09-07T13:22:10;27.50;41.20
59881;DHT22;45751;51.380;10.326;2023-09-07T13:24:38;27.60;41.90
59881;DHT22;45751;51.380;10.326;2023-09-07T13:27:05;27.70;41.80
59881;DHT22;45751;51.380;10.326;2023-09-07T13:29:36;27.80;40.40
59881;DHT22;45751;51.380;10.326;2023-09-07T13:32:04;27.90;40.60
59881;DHT22;45751;51.380;10.326;2023-09-07T13:34:31;28.10;41.00
59881;DHT22;45751;51.380;10.326;2023-09-07T13:36:58;28.20;40.60
59881;DHT22;45751;51.380;10.326;2023-09-07T13:39:25;28.30;40.20
59881;DHT22;45751;51.380;10.326;2023-09-07T13:41:54;28.40;39.10
59881;DHT22;45751;51.380;10.326;2023-09-07T13:44:21;28.50;39.30
59881;DHT22;45751;51.380;10.326;2023-09-07T13:46:48;28.70;39.30
59881;DHT22;45751;51.380;10.326;2023-09-07T13:49:15;28.70;38.20
59881;DHT22;45751;51.380;10.326;2023-09-07T13:51:44;28.80;37.60
59881;DHT22;45751;51.380;10.326;2023-09-07T13:54:12;28.90;37.40
59881;DHT22;45751;51.380;10.326;2023-09-07T13:56:39;29.00;36.80
59881;DHT22;45751;51.380;10.326;2023-09-07T13:59:08;29.10;37.50
59881;DHT22;45751;51.380;10.326;2023-09-07T14:01:36;29.20;37.30
59881;DHT22;45751;51.380;10.326;2023-09-07T14:04:10;29.30;37.40
59881;DHT22;45751;51.380;10.326;2023-09-07T14:06:38;29.30;36.90
59881;DHT22;45751;51.380;10.326;2023-09-07T14:09:08;29.40;36.80
59881;DHT22;45751;51.380;10.326;2023-09-07T14:11:35;29.40;37.00
59881;DHT22;45751;51.380;10.326;2023-09-07T14:14:02;29.60;37.30
59881;DHT22;45751;51.380;10.326;2023-09-07T14:16:29;29.70;37.20
59881;DHT22;45751;51.380;10.326;2023-09-07T14:18:55;29.70;36.80
59881;DHT22;45751;51.380;10.326;2023-09-07T14:21:22;29.70;36.70
59881;DHT22;45751;51.380;10.326;2023-09-07T14:23:49;29.80;36.30
59881;DHT22;45751;51.380;10.326;2023-09-07T14:26:16;29.90;35.70
59881;DHT22;45751;51.380;10.326;2023-09-07T14:28:43;29.90;35.80
59881;DHT22;45751;51.380;10.326;2023-09-07T14:31:13;30.00;36.40
59881;DHT22;45751;51.380;10.326;2023-09-07T14:33:40;30.00;36.50
59881;DHT22;45751;51.380;10.326;2023-09-07T14:36:09;30.00;35.90
59881;DHT22;45751;51.380;10.326;2023-09-07T14:38:36;30.10;35.90
59881;DHT22;45751;51.380;10.326;2023-09-07T14:41:08;30.10;36.00
59881;DHT22;45751;51.380;10.326;2023-09-07T14:43:39;30.20;35.90
59881;DHT22;45751;51.380;10.326;2023-09-07T14:46:06;30.20;36.00
59881;DHT22;45751;51.380;10.326;2023-09-07T14:48:33;30.30;36.10
59881;DHT22;45751;51.380;10.326;2023-09-07T14:51:00;30.30;35.40
59881;DHT22;45751;51.380;10.326;2023-09-07T14:53:27;30.30;35.70
59881;DHT22;45751;51.380;10.326;2023-09-07T14:55:55;30.40;36.30
59881;DHT22;45751;51.380;10.326;2023-09-07T14:58:23;30.40;36.20
59881;DHT22;45751;51.380;10.326;2023-09-07T15:00:50;30.50;36.30
59881;DHT22;45751;51.380;10.326;2023-09-07T15:03:17;30.50;35.50
59881;DHT22;45751;51.380;10.326;2023-09-07T15:05:44;30.60;35.30
59881;DHT22;45751;51.380;10.326;2023-09-07T15:08:10;30.60;35.50
59881;DHT22;45751;51.380;10.326;2023-09-07T15:10:37;30.60;35.50
59881;DHT22;45751;51.380;10.326;2023-09-07T15:13:04;30.60;35.60
59881;DHT22;45751;51.380;10.326;2023-09-07T15:15:34;30.70;35.40
59881;DHT22;45751;51.380;10.326;2023-09-07T15:18:04;30.70;35.30
59881;DHT22;45751;51.380;10.326;2023-09-07T15:20:31;30.70;35.80
59881;DHT22;45751;51.380;10.326;2023-09-07T15:22:58;30.70;35.80